Time;durP1;ratioP1;P1;durP2;ratioP2;P2;SDS_P1;SDS_P2;PMS_P1;PMS_P2;Temp;Humidity;BMP_temperature;BMP_pressure;BME280_temperature;BME280_humidity;BME280_pressure;Samples;Min_cycle;Max_cycle;Signal;HPM_P1;HPM_P2
2022/10/12 00:01:35;;;;;;;3.78;1.30;;;19.80;99.90;;;;;;5070959;28;20951;-86
2022/10/12 00:04:02;;;;;;;7.35;1.42;;;19.90;99.90;;;;;;5058440;28;20378;-86
2022/10/12 00:06:29;;;;;;;3.35;1.27;;;20.20;99.90;;;;;;5071902;28;20400;-87
2022/10/12 00:08:56;;;;;;;2.40;1.33;;;20.70;99.90;;;;;;5056939;28;20378;-85
2022/10/12 00:11:25;;;;;;;3.72;1.30;;;21.50;99.90;;;;;;5070693;28;20441;-85
2022/10/12 00:13:53;;;;;;;3.33;1.40;;;22.10;99.90;;;;;;5067760;28;20958;-87
2022/10/12 00:16:21;;;;;;;4.45;1.33;;;22.00;99.90;;;;;;5071596;28;20464;-91
2022/10/12 00:18:56;;;;;;;3.55;1.17;;;21.60;99.90;;;;;;5072662;28;20921;-92
2022/10/12 00:21:24;;;;;;;4.63;1.27;;;21.00;99.90;;;;;;5070672;28;20481;-91
2022/10/12 00:23:51;;;;;;;4.88;1.30;;;20.80;99.90;;;;;;5057987;28;20387;-87
2022/10/12 00:26:22;;;;;;;3.05;1.40;;;20.80;99.90;;;;;;5058276;28;20382;-88
2022/10/12 00:28:56;;;;;;;3.38;1.20;;;20.50;99.90;;;;;;5072659;28;20375;-88
2022/10/12 00:31:23;;;;;;;2.50;1.10;;;20.50;99.90;;;;;;5084326;28;20418;-90
2022/10/12 00:33:50;;;;;;;3.10;1.10;;;20.50;99.90;;;;;;5085920;28;20370;-87
2022/10/12 00:36:24;;;;;;;3.75;1.20;;;21.00;99.90;;;;;;5088256;28;20382;-88
2022/10/12 00:38:52;;;;;;;4.53;1.10;;;21.20;99.90;;;;;;5088032;28;20515;-89
2022/10/12 00:41:22;;;;;;;2.30;1.00;;;21.50;99.90;;;;;;5088478;28;20799;-89
2022/10/12 00:43:49;;;;;;;4.22;1.40;;;21.60;99.90;;;;;;5088020;28;20370;-88
2022/10/12 00:46:31;;;;;;;2.90;1.30;;;21.90;99.90;;;;;;5093302;28;20366;-88
2022/10/12 00:49:10;;;;;;;3.28;1.08;;;22.10;99.90;;;;;;5091600;28;20409;-85
2022/10/12 00:51:39;;;;;;;2.50;1.10;;;22.10;98.00;;;;;;5092531;28;20417;-86
2022/10/12 00:54:11;;;;;;;2.63;1.20;;;22.20;98.80;;;;;;5091908;28;20390;-85
2022/10/12 00:56:41;;;;;;;3.87;1.20;;;22.40;98.60;;;;;;5089493;28;20412;-85
2022/10/12 00:59:12;;;;;;;2.22;1.05;;;22.50;98.20;;;;;;5088387;28;20378;-86
2022/10/12 01:01:39;;;;;;;3.50;1.20;;;22.50;98.90;;;;;;5085167;28;20381;-87
2022/10/12 01:04:07;;;;;;;3.60;1.30;;;22.80;97.90;;;;;;5078661;28;20377;-87
2022/10/12 01:06:35;;;;;;;3.80;1.10;;;23.10;97.10;;;;;;5081806;28;20387;-88
2022/10/12 01:09:03;;;;;;;4.40;1.40;;;22.90;96.00;;;;;;5077250;28;20438;-90
2022/10/12 01:11:30;;;;;;;2.47;1.08;;;22.70;96.70;;;;;;5077232;28;20402;-92
2022/10/12 01:13:58;;;;;;;2.55;1.10;;;22.20;96.30;;;;;;5075223;28;21191;-89
2022/10/12 01:16:48;;;;;;;3.17;1.30;;;21.90;97.50;;;;;;5075111;28;20465;-88
2022/10/12 01:19:52;;;;;;;3.20;1.10;;;21.70;98.50;;;;;;5062185;28;20370;-91
2022/10/12 01:22:22;;;;;;;4.40;1.30;;;21.60;98.60;;;;;;5072539;28;20907;-90
2022/10/12 01:25:01;;;;;;;3.05;1.20;;;21.70;97.90;;;;;;5074991;28;20385;-88
2022/10/12 01:28:04;;;;;;;2.33;1.20;;;21.70;98.50;;;;;;5075919;28;20382;-87
2022/10/12 01:30:39;;;;;;;3.00;1.10;;;21.80;98.90;;;;;;5065496;28;20752;-90
2022/10/12 01:33:09;;;;;;;2.15;1.20;;;22.00;98.30;;;;;;5056603;28;20452;-91
2022/10/12 01:35:42;;;;;;;2.45;1.20;;;22.10;97.20;;;;;;5074855;28;20378;-92
2022/10/12 01:38:15;;;;;;;2.58;1.30;;;22.00;98.30;;;;;;5074704;28;20397;-90
2022/10/12 01:40:56;;;;;;;2.67;1.20;;;22.50;98.80;;;;;;5056790;28;20397;-90
2022/10/12 01:43:31;;;;;;;3.05;1.23;;;23.30;95.40;;;;;;5074371;28;20536;-90
2022/10/12 01:46:16;;;;;;;2.97;1.30;;;23.60;94.40;;;;;;5075214;28;20374;-90
2022/10/12 01:48:50;;;;;;;1.95;1.20;;;23.70;94.90;;;;;;5056572;28;20409;-90
2022/10/12 01:51:42;;;;;;;3.20;1.08;;;23.50;94.60;;;;;;5074469;28;20406;-90
2022/10/12 01:54:21;;;;;;;2.50;1.02;;;23.00;95.60;;;;;;5074440;28;20375;-90
2022/10/12 01:57:12;;;;;;;2.28;1.20;;;23.10;95.90;;;;;;5055010;28;20422;-89
2022/10/12 02:00:07;;;;;;;3.22;1.20;;;23.30;95.20;;;;;;5055842;28;20896;-89
2022/10/12 02:02:47;;;;;;;2.78;1.00;;;23.10;95.10;;;;;;5073513;28;20433;-90
2022/10/12 02:05:30;;;;;;;1.77;0.90;;;22.80;95.10;;;;;;5073848;28;20370;-88
2022/10/12 02:08:00;;;;;;;1.88;1.00;;;22.70;94.90;;;;;;5073498;28;20378;-90
2022/10/12 02:10:44;;;;;;;4.03;1.30;;;22.60;96.00;;;;;;5073092;28;20430;-89
2022/10/12 02:13:14;;;;;;;4.13;1.40;;;22.20;97.00;;;;;;5060833;28;20400;-89
2022/10/12 02:15:43;;;;;;;6.47;2.00;;;21.70;98.80;;;;;;5053941;28;20397;-86
2022/10/12 02:18:14;;;;;;;6.22;2.08;;;21.30;99.90;;;;;;5074226;28;20777;-87
2022/10/12 02:20:43;;;;;;;7.25;2.10;;;21.00;99.90;;;;;;5073205;28;20399;-87
2022/10/12 02:23:11;;;;;;;7.28;2.08;;;20.70;99.90;;;;;;5073292;28;20374;-87
2022/10/12 02:25:39;;;;;;;6.20;2.20;;;20.40;99.90;;;;;;5073132;28;20515;-88
2022/10/12 02:28:11;;;;;;;4.43;1.55;;;20.30;99.90;;;;;;5073566;28;20378;-88
2022/10/12 02:31:06;;;;;;;4.57;1.40;;;20.10;99.90;;;;;;5073551;28;20483;-88
2022/10/12 02:34:20;;;;;;;2.92;1.10;;;20.10;99.90;;;;;;5073555;28;20877;-87
2022/10/12 02:36:53;;;;;;;7.50;1.20;;;20.10;99.90;;;;;;5053967;28;20389;-88
2022/10/12 02:39:32;;;;;;;6.47;1.33;;;20.40;99.90;;;;;;5065309;28;20510;-88
2022/10/12 02:42:16;;;;;;;4.63;1.15;;;21.00;99.90;;;;;;5065978;28;20380;-88
2022/10/12 02:44:45;;;;;;;1.75;0.93;;;21.40;99.90;;;;;;5046317;28;20384;-88
2022/10/12 02:47:14;;;;;;;2.67;1.05;;;21.90;99.90;;;;;;5076687;28;20374;-88
2022/10/12 02:49:43;;;;;;;2.08;1.00;;;22.00;99.90;;;;;;5055914;28;20476;-87
2022/10/12 02:52:11;;;;;;;3.25;1.02;;;22.30;99.90;;;;;;5068230;28;20384;-88
2022/10/12 02:54:40;;;;;;;3.97;0.90;;;22.70;99.50;;;;;;5070354;28;20387;-87
2022/10/12 02:57:07;;;;;;;3.30;0.80;;;22.90;98.20;;;;;;5075881;28;20382;-88
2022/10/12 02:59:34;;;;;;;3.30;1.00;;;22.90;98.20;;;;;;5075624;28;20464;-89
2022/10/12 03:02:01;;;;;;;3.33;1.02;;;23.00;98.20;;;;;;5073792;28;20385;-89
2022/10/12 03:04:28;;;;;;;4.20;1.08;;;22.90;97.80;;;;;;5074572;28;20788;-90
2022/10/12 03:06:55;;;;;;;3.97;1.10;;;22.80;96.50;;;;;;5073826;28;20753;-93
2022/10/12 03:09:22;;;;;;;2.65;0.93;;;22.60;97.30;;;;;;5054293;28;20381;-84
2022/10/12 03:11:48;;;;;;;4.65;1.35;;;22.50;97.90;;;;;;5071496;28;20901;-83
2022/10/12 03:14:16;;;;;;;2.58;1.10;;;22.40;97.10;;;;;;5071853;28;20870;-83
2022/10/12 03:16:45;;;;;;;3.65;1.15;;;22.30;97.90;;;;;;5072094;28;20378;-83
2022/10/12 03:19:12;;;;;;;4.63;1.17;;;22.40;97.40;;;;;;5072136;28;20385;-84
2022/10/12 03:21:39;;;;;;;4.30;1.27;;;22.90;97.30;;;;;;5072004;28;20381;-83
2022/10/12 03:24:09;;;;;;;2.08;1.10;;;23.20;96.90;;;;;;5072352;28;20436;-83
2022/10/12 03:26:36;;;;;;;1.98;1.00;;;23.40;95.20;;;;;;5076420;28;20370;-84
2022/10/12 03:29:04;;;;;;;2.58;1.20;;;23.40;93.50;;;;;;5084198;28;20382;-83
2022/10/12 03:31:31;;;;;;;3.53;1.20;;;23.20;93.20;;;;;;5055345;28;20404;-83
2022/10/12 03:33:58;;;;;;;2.92;1.20;;;23.20;93.30;;;;;;5055955;28;20459;-83
2022/10/12 03:36:25;;;;;;;2.22;1.10;;;23.10;93.80;;;;;;5050889;28;20446;-83
2022/10/12 03:38:52;;;;;;;4.22;1.35;;;23.00;93.50;;;;;;5047032;28;20766;-86
2022/10/12 03:41:19;;;;;;;3.78;1.42;;;23.10;93.80;;;;;;5074958;28;20386;-82
2022/10/12 03:43:46;;;;;;;2.80;1.30;;;23.40;93.30;;;;;;5076363;28;20378;-84
2022/10/12 03:46:13;;;;;;;3.60;1.20;;;23.80;92.20;;;;;;5075837;28;20390;-77
2022/10/12 03:48:40;;;;;;;3.47;1.20;;;24.50;90.90;;;;;;5077611;28;20378;-82
2022/10/12 03:51:07;;;;;;;3.03;1.20;;;24.80;90.30;;;;;;5077511;28;20401;-82
2022/10/12 03:53:34;;;;;;;2.45;1.20;;;24.80;88.00;;;;;;5058497;28;20374;-81
2022/10/12 03:56:01;;;;;;;3.28;1.30;;;24.70;88.30;;;;;;5065786;28;20841;-84
2022/10/12 03:58:29;;;;;;;2.20;1.00;;;24.20;89.20;;;;;;5074910;28;20413;-82
2022/10/12 04:00:56;;;;;;;3.55;1.25;;;23.80;90.50;;;;;;5082435;28;20430;-84
2022/10/12 04:03:23;;;;;;;3.45;1.30;;;23.30;91.20;;;;;;5076362;28;20373;-81
2022/10/12 04:05:57;;;;;;;4.18;1.40;;;23.10;91.90;;;;;;5079676;28;20377;-82
2022/10/12 04:08:28;;;;;;;5.10;1.40;;;22.70;92.80;;;;;;5074561;28;20988;-83
2022/10/12 04:10:55;;;;;;;5.70;1.60;;;22.30;93.90;;;;;;5075871;28;20396;-82
2022/10/12 04:13:22;;;;;;;4.07;1.40;;;22.20;95.00;;;;;;5075707;28;20420;-85
2022/10/12 04:15:49;;;;;;;3.20;1.40;;;22.00;96.00;;;;;;5074399;28;20374;-85
2022/10/12 04:18:16;;;;;;;4.88;1.40;;;22.00;95.70;;;;;;5074399;28;20743;-83
2022/10/12 04:20:46;;;;;;;6.47;1.73;;;21.90;96.90;;;;;;5076862;28;20790;-87
2022/10/12 04:23:14;;;;;;;3.45;1.50;;;22.00;97.40;;;;;;5076694;28;20920;-82
2022/10/12 04:25:41;;;;;;;4.07;1.50;;;22.30;96.70;;;;;;5077728;28;20382;-81
2022/10/12 04:28:09;;;;;;;4.22;1.30;;;22.50;95.80;;;;;;5077826;28;20870;-80
2022/10/12 04:30:36;;;;;;;4.13;1.73;;;22.40;95.30;;;;;;5074278;28;20394;-83
2022/10/12 04:33:05;;;;;;;3.42;1.60;;;22.20;95.50;;;;;;5076963;28;20465;-80
2022/10/12 04:35:32;;;;;;;4.85;1.60;;;22.10;95.80;;;;;;5077170;28;20366;-83
2022/10/12 04:37:59;;;;;;;4.78;1.73;;;22.00;96.00;;;;;;5076751;28;20378;-82
2022/10/12 04:40:26;;;;;;;4.25;1.70;;;21.70;97.40;;;;;;5076896;28;20464;-85
2022/10/12 04:42:54;;;;;;;4.95;1.70;;;21.60;97.10;;;;;;5076640;28;20378;-82
2022/10/12 04:45:22;;;;;;;4.72;1.75;;;21.40;96.90;;;;;;5076960;28;20864;-81
2022/10/12 04:47:49;;;;;;;4.32;1.77;;;21.30;98.10;;;;;;5076605;28;20731;-81
2022/10/12 04:50:16;;;;;;;5.43;1.70;;;21.20;97.90;;;;;;5077213;28;20406;-82
2022/10/12 04:52:43;;;;;;;4.70;1.77;;;21.10;98.30;;;;;;5076457;28;20862;-81
2022/10/12 04:55:10;;;;;;;3.83;1.80;;;21.10;97.70;;;;;;5076016;28;20730;-82
2022/10/12 04:57:37;;;;;;;4.75;1.60;;;21.10;98.30;;;;;;5077767;28;20405;-82
2022/10/12 05:00:05;;;;;;;5.40;1.60;;;21.10;98.20;;;;;;5075884;28;20392;-83
2022/10/12 05:02:32;;;;;;;4.25;1.60;;;21.00;98.40;;;;;;5076025;28;20941;-83
2022/10/12 05:04:59;;;;;;;5.30;1.60;;;21.00;98.60;;;;;;5075681;28;20453;-83
2022/10/12 05:07:26;;;;;;;3.35;1.60;;;20.90;98.50;;;;;;5057642;28;20386;-82
2022/10/12 05:09:53;;;;;;;6.25;1.60;;;20.90;99.10;;;;;;5075436;28;20406;-82
2022/10/12 05:12:20;;;;;;;4.95;1.50;;;20.90;99.00;;;;;;5076149;28;20420;-82
2022/10/12 05:14:47;;;;;;;3.85;1.30;;;20.90;99.50;;;;;;5075021;28;20873;-83
2022/10/12 05:17:15;;;;;;;3.00;1.45;;;20.70;99.70;;;;;;5075701;28;20386;-81
2022/10/12 05:19:42;;;;;;;5.65;1.65;;;20.80;99.40;;;;;;5075831;28;20366;-82
2022/10/12 05:22:09;;;;;;;3.50;1.50;;;20.80;99.60;;;;;;5075645;28;20378;-83
2022/10/12 05:24:36;;;;;;;3.78;1.60;;;20.80;99.70;;;;;;5077261;28;20493;-83
2022/10/12 05:27:03;;;;;;;4.57;1.63;;;20.80;99.80;;;;;;5075346;28;20370;-83
2022/10/12 05:29:30;;;;;;;3.92;1.30;;;20.70;99.90;;;;;;5075287;28;20445;-83
2022/10/12 05:31:57;;;;;;;3.55;1.50;;;20.80;99.70;;;;;;5057035;28;20485;-82
2022/10/12 05:34:24;;;;;;;3.53;1.37;;;20.70;99.90;;;;;;5076831;28;20457;-83
2022/10/12 05:36:51;;;;;;;5.83;1.50;;;20.80;99.60;;;;;;5058107;28;20861;-82
2022/10/12 05:39:18;;;;;;;5.00;1.40;;;20.90;99.30;;;;;;5076251;28;20392;-82
2022/10/12 05:41:45;;;;;;;3.92;1.60;;;20.90;99.20;;;;;;5075413;28;20874;-80
2022/10/12 05:44:12;;;;;;;3.30;1.40;;;21.00;99.30;;;;;;5075235;28;20393;-82
2022/10/12 05:46:39;;;;;;;3.80;1.50;;;20.90;99.00;;;;;;5075579;28;20431;-81
2022/10/12 05:49:06;;;;;;;3.50;1.40;;;20.90;98.50;;;;;;5075199;28;20406;-81
2022/10/12 05:51:33;;;;;;;3.63;1.70;;;21.10;98.50;;;;;;5074730;28;20404;-80
2022/10/12 05:54:03;;;;;;;3.22;1.30;;;21.10;97.90;;;;;;5076066;28;20393;-82
2022/10/12 05:56:30;;;;;;;4.18;1.30;;;21.00;98.10;;;;;;5079168;28;20450;-81
2022/10/12 05:58:57;;;;;;;5.00;1.40;;;21.10;97.80;;;;;;5078551;28;20382;-82
2022/10/12 06:01:24;;;;;;;3.10;1.55;;;21.10;97.70;;;;;;5078918;28;20378;-82
2022/10/12 06:03:53;;;;;;;3.13;1.30;;;21.10;97.90;;;;;;5077446;28;20420;-82
2022/10/12 06:06:20;;;;;;;3.67;1.40;;;21.10;97.90;;;;;;5075827;28;20460;-81
2022/10/12 06:08:47;;;;;;;6.28;1.30;;;21.00;98.10;;;;;;5074801;28;20365;-80
2022/10/12 06:11:15;;;;;;;4.68;1.40;;;21.00;98.30;;;;;;5074377;28;20409;-81
2022/10/12 06:13:42;;;;;;;4.13;1.35;;;20.90;98.40;;;;;;5074913;28;20381;-84
2022/10/12 06:16:09;;;;;;;6.00;1.50;;;20.90;98.50;;;;;;5074862;28;20436;-82
2022/10/12 06:18:36;;;;;;;6.00;1.40;;;20.90;98.90;;;;;;5075306;28;20464;-81
2022/10/12 06:21:03;;;;;;;5.15;1.40;;;20.80;98.90;;;;;;5074159;28;20746;-83
2022/10/12 06:23:30;;;;;;;3.72;1.20;;;20.70;99.10;;;;;;5076998;28;20370;-82
2022/10/12 06:25:57;;;;;;;4.90;1.33;;;20.60;99.60;;;;;;5076336;28;20398;-82
2022/10/12 06:28:24;;;;;;;6.25;1.27;;;20.40;99.90;;;;;;5076226;28;20370;-83
2022/10/12 06:30:59;;;;;;;3.45;1.23;;;20.40;99.90;;;;;;5056098;28;20390;-83
2022/10/12 06:33:27;;;;;;;6.28;1.50;;;20.30;99.90;;;;;;5074180;28;20367;-83
2022/10/12 06:35:55;;;;;;;4.32;1.27;;;20.20;99.90;;;;;;5075071;28;20377;-81
2022/10/12 06:38:23;;;;;;;4.95;1.30;;;20.10;99.90;;;;;;5076731;28;20386;-81
2022/10/12 06:40:52;;;;;;;4.88;1.40;;;20.00;99.90;;;;;;5058619;28;20957;-82
2022/10/12 06:43:21;;;;;;;5.53;1.30;;;20.00;99.90;;;;;;5075817;28;20767;-83
2022/10/12 06:45:51;;;;;;;5.18;1.20;;;20.00;99.90;;;;;;5076078;28;20405;-83
2022/10/12 06:48:21;;;;;;;5.03;1.20;;;19.80;99.90;;;;;;5060654;28;20866;-85
2022/10/12 06:50:54;;;;;;;7.60;1.20;;;19.80;99.90;;;;;;5078078;28;20412;-83
2022/10/12 06:53:21;;;;;;;4.35;1.30;;;19.70;99.90;;;;;;5076051;28;20377;-82
2022/10/12 06:55:48;;;;;;;7.07;1.38;;;19.70;99.90;;;;;;5077441;28;20420;-82
2022/10/12 06:58:15;;;;;;;5.40;1.17;;;19.50;99.90;;;;;;5076398;28;20877;-83
2022/10/12 07:00:42;;;;;;;4.13;1.20;;;19.40;99.90;;;;;;5056207;28;20396;-82
2022/10/12 07:03:13;;;;;;;4.03;1.13;;;19.30;99.90;;;;;;5074405;28;20784;-83
2022/10/12 07:05:40;;;;;;;4.70;1.10;;;19.20;99.90;;;;;;5074811;28;20366;-84
2022/10/12 07:08:07;;;;;;;5.13;1.02;;;19.10;99.90;;;;;;5074086;28;20481;-81
2022/10/12 07:10:34;;;;;;;5.50;1.30;;;19.00;99.90;;;;;;5080626;28;20383;-81
2022/10/12 07:13:01;;;;;;;4.53;1.20;;;18.90;99.90;;;;;;5075690;28;20870;-82
2022/10/12 07:15:28;;;;;;;4.72;1.00;;;18.80;99.90;;;;;;5075605;28;20461;-82
2022/10/12 07:17:55;;;;;;;4.85;0.98;;;18.80;99.90;;;;;;5078032;28;20374;-82
2022/10/12 07:20:22;;;;;;;3.50;1.00;;;18.80;99.90;;;;;;5073586;28;20381;-80
2022/10/12 07:22:49;;;;;;;2.85;0.88;;;18.70;99.90;;;;;;5073837;28;20378;-82
2022/10/12 07:25:16;;;;;;;6.32;1.08;;;18.60;99.90;;;;;;5077770;28;20374;-85
2022/10/12 07:27:47;;;;;;;4.60;1.00;;;18.60;99.90;;;;;;5074618;28;20412;-84
2022/10/12 07:30:14;;;;;;;6.13;1.10;;;18.50;99.90;;;;;;5073240;28;20975;-82
2022/10/12 07:32:43;;;;;;;4.65;1.00;;;18.50;99.90;;;;;;5070590;28;20807;-82
2022/10/12 07:35:10;;;;;;;5.23;1.00;;;18.40;99.90;;;;;;5072933;28;20358;-82
2022/10/12 07:37:37;;;;;;;3.88;1.10;;;18.20;99.90;;;;;;5073971;28;20386;-82
2022/10/12 07:40:05;;;;;;;5.18;1.20;;;18.20;99.90;;;;;;5054556;28;20374;-82
2022/10/12 07:42:32;;;;;;;5.43;1.17;;;18.10;99.90;;;;;;5073464;28;20378;-82
2022/10/12 07:44:59;;;;;;;2.95;1.10;;;18.10;99.90;;;;;;5073932;28;20366;-82
2022/10/12 07:47:26;;;;;;;5.18;1.00;;;18.00;99.90;;;;;;5073746;28;20435;-82
2022/10/12 07:49:53;;;;;;;5.25;1.25;;;17.90;99.90;;;;;;5072288;28;20380;-83
2022/10/12 07:52:20;;;;;;;7.20;1.23;;;17.90;99.90;;;;;;5072226;28;20385;-83
2022/10/12 07:54:47;;;;;;;5.63;1.20;;;17.80;99.90;;;;;;5074187;28;20374;-83
2022/10/12 07:57:14;;;;;;;4.83;1.03;;;17.80;99.90;;;;;;5076904;28;20382;-83
2022/10/12 07:59:41;;;;;;;3.83;1.10;;;17.80;99.90;;;;;;5076583;28;20374;-83
2022/10/12 08:02:10;;;;;;;5.07;1.10;;;17.70;99.90;;;;;;5076522;28;20806;-82
2022/10/12 08:04:37;;;;;;;5.25;1.23;;;17.70;99.90;;;;;;5076777;28;20370;-81
2022/10/12 08:07:04;;;;;;;3.22;1.10;;;17.60;99.90;;;;;;5076596;28;20465;-82
2022/10/12 08:09:35;;;;;;;4.50;1.10;;;17.60;99.90;;;;;;5076415;28;20385;-82
2022/10/12 08:12:02;;;;;;;5.45;1.30;;;17.60;99.90;;;;;;5077395;28;20496;-81
2022/10/12 08:14:29;;;;;;;4.50;1.30;;;17.50;99.90;;;;;;5076294;28;20390;-81
2022/10/12 08:16:56;;;;;;;6.10;1.20;;;17.50;99.90;;;;;;5076418;28;20377;-80
2022/10/12 08:19:23;;;;;;;6.45;1.40;;;17.40;99.90;;;;;;5075995;28;20377;-81
2022/10/12 08:21:51;;;;;;;6.38;1.33;;;17.40;99.90;;;;;;5076127;28;20428;-82
2022/10/12 08:24:18;;;;;;;5.05;1.20;;;17.30;99.90;;;;;;5078639;28;20378;-82
2022/10/12 08:26:45;;;;;;;3.42;1.13;;;17.30;99.90;;;;;;5076069;28;20405;-81
2022/10/12 08:29:12;;;;;;;4.75;1.38;;;17.20;99.90;;;;;;5076092;28;20412;-82
2022/10/12 08:31:39;;;;;;;6.90;1.70;;;17.20;99.90;;;;;;5076115;28;20420;-81
2022/10/12 08:34:07;;;;;;;7.50;1.20;;;17.20;99.90;;;;;;5076375;28;20377;-82
2022/10/12 08:36:34;;;;;;;5.93;1.40;;;17.20;99.90;;;;;;5076492;28;20420;-82
2022/10/12 08:39:01;;;;;;;4.30;1.20;;;17.20;99.90;;;;;;5077112;28;20370;-81
2022/10/12 08:41:52;;;;;;;7.70;1.55;;;17.10;99.90;;;;;;5084567;28;20724;-80
2022/10/12 08:44:31;;;;;;;5.35;1.27;;;17.10;99.90;;;;;;5084915;28;20372;-82
2022/10/12 08:47:26;;;;;;;6.22;1.50;;;17.10;99.90;;;;;;5084677;28;20366;-81
2022/10/12 08:49:54;;;;;;;6.47;1.30;;;17.10;99.90;;;;;;5073328;28;20409;-81
2022/10/12 08:52:29;;;;;;;6.82;1.30;;;17.10;99.90;;;;;;5076344;28;20466;-81
2022/10/12 08:55:05;;;;;;;5.15;1.50;;;17.10;99.90;;;;;;5076064;28;20385;-81
2022/10/12 08:57:34;;;;;;;6.60;1.33;;;17.00;99.90;;;;;;5057544;28;20379;-81
2022/10/12 09:00:01;;;;;;;6.30;1.40;;;17.00;99.90;;;;;;5075979;28;20385;-82
2022/10/12 09:02:46;;;;;;;6.43;1.42;;;17.00;99.90;;;;;;5076141;28;20426;-82
2022/10/12 09:05:40;;;;;;;6.50;1.42;;;16.90;99.90;;;;;;5075394;28;20435;-82
2022/10/12 09:08:20;;;;;;;7.60;1.48;;;16.80;99.90;;;;;;5067656;28;20374;-82
2022/10/12 09:10:56;;;;;;;6.18;1.20;;;16.80;99.90;;;;;;5079600;28;20401;-81
2022/10/12 09:13:54;;;;;;;6.05;1.30;;;16.80;99.90;;;;;;5084441;28;20389;-81
2022/10/12 09:16:34;;;;;;;6.72;1.38;;;16.70;99.90;;;;;;5097199;28;20361;-82
2022/10/12 09:19:32;;;;;;;7.10;1.50;;;16.80;99.90;;;;;;5094890;28;20381;-82
2022/10/12 09:22:00;;;;;;;7.78;1.33;;;16.70;99.90;;;;;;5063364;28;20858;-82
2022/10/12 09:24:33;;;;;;;6.03;1.38;;;16.70;99.90;;;;;;5076422;28;20499;-82
2022/10/12 09:27:12;;;;;;;7.15;1.48;;;16.70;99.90;;;;;;5079314;28;20397;-81
2022/10/12 09:29:40;;;;;;;6.88;1.50;;;16.70;99.90;;;;;;5076065;28;20461;-81
2022/10/12 09:32:48;;;;;;;9.40;1.90;;;16.70;99.90;;;;;;5076975;28;20849;-82
2022/10/12 09:35:15;;;;;;;7.88;1.92;;;16.70;99.90;;;;;;4998223;28;20388;-81
2022/10/12 09:37:43;;;;;;;5.90;1.63;;;16.70;99.90;;;;;;4996324;28;20397;-81
2022/10/12 09:40:24;;;;;;;6.70;1.60;;;16.70;99.90;;;;;;4994247;28;20378;-81
2022/10/12 09:42:53;;;;;;;6.93;1.50;;;16.60;99.90;;;;;;4994283;28;20423;-82
2022/10/12 09:45:21;;;;;;;6.75;1.50;;;16.70;99.90;;;;;;4977322;28;20470;-82
2022/10/12 09:48:19;;;;;;;9.50;1.48;;;16.70;99.90;;;;;;4993966;28;20393;-82
2022/10/12 09:50:55;;;;;;;7.38;1.40;;;16.60;99.90;;;;;;4993906;28;20501;-82
2022/10/12 09:53:35;;;;;;;10.70;1.42;;;16.60;99.90;;;;;;4994042;28;20464;-82
2022/10/12 09:56:22;;;;;;;8.25;1.67;;;16.60;99.90;;;;;;4994534;28;20444;-82
2022/10/12 09:59:05;;;;;;;9.73;1.60;;;16.60;99.90;;;;;;4993824;28;20377;-82
2022/10/12 10:01:34;;;;;;;8.38;1.50;;;16.50;99.90;;;;;;4993592;28;20385;-81
2022/10/12 10:04:22;;;;;;;6.45;1.40;;;16.50;99.90;;;;;;4993553;28;20388;-81
2022/10/12 10:06:49;;;;;;;5.60;1.40;;;16.50;99.90;;;;;;4993978;28;20389;-82
2022/10/12 10:09:32;;;;;;;10.23;1.80;;;16.40;99.90;;;;;;4993517;28;20392;-80
2022/10/12 10:12:13;;;;;;;7.43;1.53;;;16.50;99.90;;;;;;5025913;28;20501;-81
2022/10/12 10:14:44;;;;;;;7.10;1.50;;;16.50;99.90;;;;;;5073906;28;20878;-81
2022/10/12 10:17:17;;;;;;;7.40;1.50;;;16.40;99.90;;;;;;5075377;28;20857;-82
2022/10/12 10:19:51;;;;;;;6.90;1.50;;;16.30;99.90;;;;;;5076310;28;20392;-80
2022/10/12 10:22:20;;;;;;;8.83;2.00;;;16.30;99.90;;;;;;5074799;28;20383;-81
2022/10/12 10:24:56;;;;;;;7.60;1.60;;;16.30;99.90;;;;;;5074550;28;20362;-81
2022/10/12 10:27:37;;;;;;;6.00;1.35;;;16.20;99.90;;;;;;5075026;28;20384;-81
2022/10/12 10:30:16;;;;;;;9.00;1.45;;;16.10;99.90;;;;;;5056389;28;20406;-81
2022/10/12 10:32:44;;;;;;;7.18;1.52;;;16.10;99.90;;;;;;5074329;28;20377;-81
2022/10/12 10:35:13;;;;;;;6.32;1.48;;;16.10;99.90;;;;;;5074245;28;20371;-82
2022/10/12 10:37:50;;;;;;;7.75;1.70;;;16.10;99.90;;;;;;5075767;28;20939;-82
2022/10/12 10:40:20;;;;;;;8.27;1.73;;;16.10;99.90;;;;;;5075069;28;20377;-82
2022/10/12 10:43:00;;;;;;;8.02;1.60;;;16.20;99.90;;;;;;5075557;28;20385;-80
2022/10/12 10:45:33;;;;;;;7.28;1.55;;;16.10;99.90;;;;;;5076243;28;20365;-81
2022/10/12 10:48:14;;;;;;;6.32;1.50;;;16.10;99.90;;;;;;5077598;28;20381;-81
2022/10/12 10:50:49;;;;;;;6.35;1.50;;;16.10;99.90;;;;;;5078075;28;20386;-82
2022/10/12 10:53:23;;;;;;;6.15;1.65;;;16.10;99.90;;;;;;5080115;28;20362;-82
2022/10/12 10:56:14;;;;;;;6.22;1.48;;;16.10;99.90;;;;;;5063405;28;20393;-81
2022/10/12 10:58:48;;;;;;;5.47;1.50;;;16.10;99.90;;;;;;5092103;28;20370;-80
2022/10/12 11:01:25;;;;;;;7.00;1.60;;;16.10;99.90;;;;;;5091948;28;20414;-80
2022/10/12 11:03:58;;;;;;;6.80;1.42;;;16.10;99.90;;;;;;5091571;28;20394;-81
2022/10/12 11:06:46;;;;;;;6.43;1.50;;;16.00;99.90;;;;;;5089519;28;20370;-80
2022/10/12 11:09:32;;;;;;;7.47;1.80;;;16.00;99.90;;;;;;5067676;28;20571;-81
2022/10/12 11:12:23;;;;;;;8.32;1.60;;;16.00;99.90;;;;;;5077202;28;20384;-81
2022/10/12 11:14:54;;;;;;;6.28;1.67;;;15.90;99.90;;;;;;5073533;28;20764;-81
2022/10/12 11:17:41;;;;;;;7.15;1.73;;;15.90;99.90;;;;;;5039682;28;20413;-80
2022/10/12 11:20:35;;;;;;;8.63;1.70;;;15.80;99.90;;;;;;5074731;28;20738;-81
2022/10/12 11:23:40;;;;;;;5.37;1.50;;;15.70;99.90;;;;;;5074564;28;20385;-81
2022/10/12 11:26:24;;;;;;;8.13;1.70;;;15.70;99.90;;;;;;5071185;28;20374;-81
2022/10/12 11:28:53;;;;;;;5.73;1.43;;;15.70;99.90;;;;;;5073209;28;20461;-81
2022/10/12 11:31:31;;;;;;;6.55;1.50;;;15.60;99.90;;;;;;5073314;28;20395;-80
2022/10/12 11:34:03;;;;;;;6.18;1.70;;;15.60;99.90;;;;;;5055480;28;20953;-81
2022/10/12 11:36:33;;;;;;;5.67;1.50;;;15.60;99.90;;;;;;5072794;28;20818;-81
2022/10/12 11:39:07;;;;;;;6.35;1.45;;;15.50;99.90;;;;;;5073699;28;20778;-80
2022/10/12 11:41:46;;;;;;;7.25;1.40;;;15.50;99.90;;;;;;5072640;28;20904;-81
2022/10/12 11:44:27;;;;;;;7.88;1.50;;;15.50;99.90;;;;;;5072669;28;20370;-81
2022/10/12 11:47:00;;;;;;;4.38;1.30;;;15.40;99.90;;;;;;5072681;28;20374;-81
2022/10/12 11:49:30;;;;;;;6.88;1.50;;;15.40;99.90;;;;;;5072756;28;20437;-81
2022/10/12 11:52:08;;;;;;;7.38;1.60;;;15.40;99.90;;;;;;5072166;28;20870;-81
2022/10/12 11:54:48;;;;;;;6.88;1.45;;;15.30;99.90;;;;;;5072723;28;20370;-81
2022/10/12 11:57:23;;;;;;;6.82;1.52;;;15.30;99.90;;;;;;5074517;28;20370;-81
2022/10/12 12:00:17;;;;;;;5.83;1.33;;;15.30;99.90;;;;;;5073807;28;20366;-80
2022/10/12 12:02:53;;;;;;;6.57;1.50;;;15.30;99.90;;;;;;5064504;28;20378;-81
2022/10/12 12:05:20;;;;;;;7.38;1.40;;;15.20;99.90;;;;;;5055000;28;20453;-80
2022/10/12 12:07:53;;;;;;;6.03;1.23;;;15.20;99.90;;;;;;5072825;28;20372;-81
2022/10/12 12:10:26;;;;;;;7.18;1.50;;;15.20;99.90;;;;;;5072484;28;20569;-81
2022/10/12 12:13:11;;;;;;;8.52;1.33;;;15.10;99.90;;;;;;5072695;28;20390;-81
2022/10/12 12:15:48;;;;;;;6.03;1.50;;;15.10;99.90;;;;;;5073027;28;20522;-81
2022/10/12 12:18:18;;;;;;;7.60;1.30;;;15.10;99.90;;;;;;5073048;28;20361;-81
2022/10/12 12:20:47;;;;;;;6.43;1.52;;;15.00;99.90;;;;;;5072531;28;20366;-80
2022/10/12 12:23:31;;;;;;;7.75;1.50;;;15.00;99.90;;;;;;5072576;28;20354;-80
2022/10/12 12:26:10;;;;;;;6.97;1.60;;;15.00;99.90;;;;;;5073599;28;20370;-81
2022/10/12 12:28:43;;;;;;;5.90;1.40;;;14.90;99.90;;;;;;5072784;28;20366;-82
2022/10/12 12:31:09;;;;;;;6.05;1.60;;;14.90;99.90;;;;;;5072512;28;20935;-80
2022/10/12 12:33:41;;;;;;;5.20;1.40;;;14.90;99.90;;;;;;5072830;28;20382;-81
2022/10/12 12:36:30;;;;;;;7.53;1.40;;;14.80;99.90;;;;;;5072517;28;20772;-81
2022/10/12 12:38:58;;;;;;;4.35;1.58;;;14.80;99.90;;;;;;5074453;28;20374;-81
2022/10/12 12:41:46;;;;;;;6.55;1.50;;;14.80;99.90;;;;;;5077960;28;20378;-80
2022/10/12 12:44:41;;;;;;;7.35;1.77;;;14.80;99.90;;;;;;5081364;28;20362;-80
2022/10/12 12:47:11;;;;;;;6.73;1.50;;;14.70;99.90;;;;;;5078359;28;20374;-80
2022/10/12 12:49:39;;;;;;;6.13;1.50;;;14.70;99.90;;;;;;5077079;28;20378;-81
2022/10/12 12:52:11;;;;;;;7.78;1.55;;;14.60;99.90;;;;;;5076426;28;20406;-80
2022/10/12 12:54:55;;;;;;;6.93;1.50;;;14.60;99.90;;;;;;5077000;28;20366;-80
2022/10/12 12:58:09;;;;;;;6.10;1.30;;;14.50;99.90;;;;;;5076096;28;20366;-80
2022/10/12 13:00:56;;;;;;;5.53;1.37;;;14.50;99.90;;;;;;4994826;28;20397;-80
2022/10/12 13:03:38;;;;;;;6.22;1.42;;;14.50;99.90;;;;;;4995316;28;20481;-81
2022/10/12 13:06:08;;;;;;;6.05;1.30;;;14.50;99.90;;;;;;4995488;28;20841;-81
2022/10/12 13:08:53;;;;;;;5.75;1.27;;;14.40;99.90;;;;;;4995124;28;20853;-81
2022/10/12 13:11:36;;;;;;;7.20;1.52;;;14.40;99.90;;;;;;4994731;28;20409;-81
2022/10/12 13:14:27;;;;;;;8.90;1.60;;;14.40;99.90;;;;;;5007098;28;20403;-80
2022/10/12 13:17:27;;;;;;;5.80;1.35;;;14.40;99.90;;;;;;5014518;28;20379;-80